sensor_id;sensor_type;location;lat;lon;timestamp;pressure;altitude;pressure_sealevel;temperature;humidity
14204;BME280;7185;51.854;6.622;2022-12-07T00:01:54;101419.63;;;5.98;100.00
14204;BME280;7185;51.854;6.622;2022-12-07T00:04:26;101416.09;;;5.93;100.00
14204;BME280;7185;51.854;6.622;2022-12-07T00:06:58;101414.41;;;5.95;100.00
14204;BME280;7185;51.854;6.622;2022-12-07T00:09:32;101414.28;;;5.89;100.00
14204;BME280;7185;51.854;6.622;2022-12-07T00:12:04;101414.22;;;5.83;100.00
14204;BME280;7185;51.854;6.622;2022-12-07T00:14:36;101414.03;;;5.70;100.00
14204;BME280;7185;51.854;6.622;2022-12-07T00:17:08;101426.94;;;5.63;100.00
14204;BME280;7185;51.854;6.622;2022-12-07T00:19:39;101417.25;;;5.54;100.00
14204;BME280;7185;51.854;6.622;2022-12-07T00:22:11;101409.50;;;5.55;100.00
14204;BME280;7185;51.854;6.622;2022-12-07T00:24:44;101411.09;;;5.47;100.00
14204;BME280;7185;51.854;6.622;2022-12-07T00:27:16;101415.28;;;5.37;100.00
14204;BME280;7185;51.854;6.622;2022-12-07T00:29:47;101401.44;;;5.38;100.00
14204;BME280;7185;51.854;6.622;2022-12-07T00:32:19;101401.28;;;5.32;100.00
14204;BME280;7185;51.854;6.622;2022-12-07T00:34:50;101393.47;;;5.31;100.00
14204;BME280;7185;51.854;6.622;2022-12-07T00:37:22;101395.22;;;5.30;100.00
14204;BME280;7185;51.854;6.622;2022-12-07T00:39:55;101390.78;;;5.26;100.00
14204;BME280;7185;51.854;6.622;2022-12-07T00:42:27;101386.44;;;5.23;100.00
14204;BME280;7185;51.854;6.622;2022-12-07T00:44:58;101387.31;;;5.24;100.00
14204;BME280;7185;51.854;6.622;2022-12-07T00:47:30;101383.75;;;5.19;100.00
14204;BME280;7185;51.854;6.622;2022-12-07T00:50:04;101382.78;;;5.12;100.00
14204;BME280;7185;51.854;6.622;2022-12-07T00:52:38;101382.81;;;5.14;100.00
14204;BME280;7185;51.854;6.622;2022-12-07T00:55:11;101383.66;;;5.13;100.00
14204;BME280;7185;51.854;6.622;2022-12-07T00:57:43;101388.84;;;5.13;100.00
14204;BME280;7185;51.854;6.622;2022-12-07T01:00:15;101388.81;;;5.09;100.00
14204;BME280;7185;51.854;6.622;2022-12-07T01:02:47;101377.56;;;5.10;100.00
14204;BME280;7185;51.854;6.622;2022-12-07T01:05:19;101374.84;;;5.04;100.00
14204;BME280;7185;51.854;6.622;2022-12-07T01:07:50;101377.50;;;5.06;100.00
14204;BME280;7185;51.854;6.622;2022-12-07T01:10:23;101379.09;;;4.99;100.00
14204;BME280;7185;51.854;6.622;2022-12-07T01:12:55;101376.31;;;4.90;100.00
14204;BME280;7185;51.854;6.622;2022-12-07T01:15:27;101383.28;;;4.91;100.00
14204;BME280;7185;51.854;6.622;2022-12-07T01:17:59;101384.00;;;4.82;100.00
14204;BME280;7185;51.854;6.622;2022-12-07T01:20:30;101393.41;;;4.75;100.00
14204;BME280;7185;51.854;6.622;2022-12-07T01:23:02;101385.56;;;4.72;100.00
14204;BME280;7185;51.854;6.622;2022-12-07T01:25:35;101398.53;;;4.71;100.00
14204;BME280;7185;51.854;6.622;2022-12-07T01:28:07;101388.81;;;4.62;100.00
14204;BME280;7185;51.854;6.622;2022-12-07T01:30:39;101399.13;;;4.57;100.00
14204;BME280;7185;51.854;6.622;2022-12-07T01:33:10;101399.13;;;4.57;100.00
14204;BME280;7185;51.854;6.622;2022-12-07T01:35:42;101402.47;;;4.50;100.00
14204;BME280;7185;51.854;6.622;2022-12-07T01:38:13;101396.34;;;4.46;100.00
14204;BME280;7185;51.854;6.622;2022-12-07T01:40:55;101401.13;;;4.28;100.00
14204;BME280;7185;51.854;6.622;2022-12-07T01:43:29;101401.97;;;4.27;100.00
14204;BME280;7185;51.854;6.622;2022-12-07T01:46:06;101400.88;;;4.15;100.00
14204;BME280;7185;51.854;6.622;2022-12-07T01:48:40;101402.47;;;4.09;100.00
14204;BME280;7185;51.854;6.622;2022-12-07T01:51:13;101397.25;;;4.07;100.00
14204;BME280;7185;51.854;6.622;2022-12-07T01:53:45;101395.50;;;4.06;100.00
14204;BME280;7185;51.854;6.622;2022-12-07T01:56:23;101395.50;;;4.06;100.00
14204;BME280;7185;51.854;6.622;2022-12-07T01:58:57;101387.69;;;4.05;100.00
14204;BME280;7185;51.854;6.622;2022-12-07T02:01:30;101387.53;;;3.97;100.00
14204;BME280;7185;51.854;6.622;2022-12-07T02:04:02;101387.44;;;3.92;100.00
14204;BME280;7185;51.854;6.622;2022-12-07T02:06:35;101386.38;;;3.84;100.00
14204;BME280;7185;51.854;6.622;2022-12-07T02:09:08;101378.63;;;3.86;100.00
14204;BME280;7185;51.854;6.622;2022-12-07T02:11:41;101376.72;;;3.78;100.00
14204;BME280;7185;51.854;6.622;2022-12-07T02:14:13;101377.56;;;3.77;100.00
14204;BME280;7185;51.854;6.622;2022-12-07T02:16:53;101373.19;;;3.75;100.00
14204;BME280;7185;51.854;6.622;2022-12-07T02:19:50;101376.59;;;3.72;100.00
14204;BME280;7185;51.854;6.622;2022-12-07T02:22:48;101383.69;;;3.79;100.00
14204;BME280;7185;51.854;6.622;2022-12-07T02:25:33;101381.88;;;3.75;100.00
14204;BME280;7185;51.854;6.622;2022-12-07T02:28:14;101387.16;;;3.80;100.00
14204;BME280;7185;51.854;6.622;2022-12-07T02:30:52;101387.06;;;3.75;100.00
14204;BME280;7185;51.854;6.622;2022-12-07T02:33:30;101388.03;;;3.80;100.00
14204;BME280;7185;51.854;6.622;2022-12-07T02:36:06;101381.78;;;3.72;100.00
14204;BME280;7185;51.854;6.622;2022-12-07T02:38:45;101388.81;;;3.76;100.00
14204;BME280;7185;51.854;6.622;2022-12-07T02:41:24;101392.16;;;3.72;100.00
14204;BME280;7185;51.854;6.622;2022-12-07T02:43:59;101385.28;;;3.73;100.00
14204;BME280;7185;51.854;6.622;2022-12-07T02:46:36;101393.66;;;3.62;100.00
14204;BME280;7185;51.854;6.622;2022-12-07T02:49:10;101379.91;;;3.65;100.00
14204;BME280;7185;51.854;6.622;2022-12-07T02:51:44;101384.25;;;3.66;100.00
14204;BME280;7185;51.854;6.622;2022-12-07T02:54:18;101388.56;;;3.65;100.00
14204;BME280;7185;51.854;6.622;2022-12-07T02:56:53;101383.38;;;3.65;100.00
14204;BME280;7185;51.854;6.622;2022-12-07T02:59:35;101387.53;;;3.59;100.00
14204;BME280;7185;51.854;6.622;2022-12-07T03:02:18;101382.34;;;3.59;100.00
14204;BME280;7185;51.854;6.622;2022-12-07T03:05:03;101390.91;;;3.55;100.00
14204;BME280;7185;51.854;6.622;2022-12-07T03:07:40;101387.53;;;3.59;100.00
14204;BME280;7185;51.854;6.622;2022-12-07T03:10:22;101392.72;;;3.59;100.00
14204;BME280;7185;51.854;6.622;2022-12-07T03:13:02;101399.53;;;3.54;100.00
14204;BME280;7185;51.854;6.622;2022-12-07T03:15:41;101392.59;;;3.53;100.00
14204;BME280;7185;51.854;6.622;2022-12-07T03:18:18;101388.25;;;3.53;100.00
14204;BME280;7185;51.854;6.622;2022-12-07T03:20:54;101394.41;;;3.57;100.00
14204;BME280;7185;51.854;6.622;2022-12-07T03:23:27;101389.16;;;3.54;100.00
14204;BME280;7185;51.854;6.622;2022-12-07T03:26:01;101389.22;;;3.57;100.00
14204;BME280;7185;51.854;6.622;2022-12-07T03:28:37;101392.66;;;3.56;100.00
14204;BME280;7185;51.854;6.622;2022-12-07T03:31:13;101392.66;;;3.56;100.00
14204;BME280;7185;51.854;6.622;2022-12-07T03:33:53;101390.13;;;3.59;100.00
14204;BME280;7185;51.854;6.622;2022-12-07T03:36:32;101390.25;;;3.63;100.00
14204;BME280;7185;51.854;6.622;2022-12-07T03:39:14;101391.06;;;3.61;100.00
14204;BME280;7185;51.854;6.622;2022-12-07T03:41:47;101379.00;;;3.63;100.00
14204;BME280;7185;51.854;6.622;2022-12-07T03:44:20;101371.31;;;3.67;100.00
14204;BME280;7185;51.854;6.622;2022-12-07T03:47:01;101374.69;;;3.63;100.00
14204;BME280;7185;51.854;6.622;2022-12-07T03:49:42;101378.91;;;3.60;100.00
14204;BME280;7185;51.854;6.622;2022-12-07T03:52:22;101377.13;;;3.56;100.00
14204;BME280;7185;51.854;6.622;2022-12-07T03:54:59;101378.84;;;3.57;100.00
14204;BME280;7185;51.854;6.622;2022-12-07T03:57:33;101376.31;;;3.60;100.00
14204;BME280;7185;51.854;6.622;2022-12-07T04:00:06;101378.91;;;3.58;100.00
14204;BME280;7185;51.854;6.622;2022-12-07T04:02:39;101378.09;;;3.61;100.00
14204;BME280;7185;51.854;6.622;2022-12-07T04:05:13;101372.06;;;3.62;100.00
14204;BME280;7185;51.854;6.622;2022-12-07T04:07:44;101378.94;;;3.61;100.00
14204;BME280;7185;51.854;6.622;2022-12-07T04:10:16;101370.56;;;3.73;100.00
14204;BME280;7185;51.854;6.622;2022-12-07T04:12:51;101367.88;;;3.69;100.00
14204;BME280;7185;51.854;6.622;2022-12-07T04:15:22;101363.63;;;3.72;100.00
14204;BME280;7185;51.854;6.622;2022-12-07T04:17:54;101360.19;;;3.73;100.00
14204;BME280;7185;51.854;6.622;2022-12-07T04:20:27;101361.13;;;3.75;100.00
14204;BME280;7185;51.854;6.622;2022-12-07T04:22:59;101362.94;;;3.81;100.00
14204;BME280;7185;51.854;6.622;2022-12-07T04:25:30;101368.28;;;3.87;100.00
14204;BME280;7185;51.854;6.622;2022-12-07T04:28:02;101375.28;;;3.90;100.00
14204;BME280;7185;51.854;6.622;2022-12-07T04:30:37;101373.50;;;3.89;100.00
14204;BME280;7185;51.854;6.622;2022-12-07T04:33:08;101371.97;;;3.97;100.00
14204;BME280;7185;51.854;6.622;2022-12-07T04:35:42;101373.03;;;4.07;100.00
14204;BME280;7185;51.854;6.622;2022-12-07T04:38:14;101374.59;;;4.00;100.00
14204;BME280;7185;51.854;6.622;2022-12-07T04:40:45;101371.03;;;3.95;100.00
14204;BME280;7185;51.854;6.622;2022-12-07T04:43:17;101374.47;;;3.94;100.00
14204;BME280;7185;51.854;6.622;2022-12-07T04:45:51;101367.66;;;3.99;100.00
14204;BME280;7185;51.854;6.622;2022-12-07T04:48:22;101365.03;;;3.96;100.00
14204;BME280;7185;51.854;6.622;2022-12-07T04:50:55;101360.81;;;4.03;100.00
14204;BME280;7185;51.854;6.622;2022-12-07T04:53:27;101367.75;;;4.02;100.00
14204;BME280;7185;51.854;6.622;2022-12-07T04:55:59;101361.72;;;4.05;100.00
14204;BME280;7185;51.854;6.622;2022-12-07T04:58:31;101361.72;;;4.03;100.00
14204;BME280;7185;51.854;6.622;2022-12-07T05:01:03;101366.09;;;4.07;100.00
14204;BME280;7185;51.854;6.622;2022-12-07T05:03:35;101359.25;;;4.09;100.00
14204;BME280;7185;51.854;6.622;2022-12-07T05:06:09;101356.63;;;4.08;100.00
14204;BME280;7185;51.854;6.622;2022-12-07T05:08:41;101358.31;;;4.06;100.00
14204;BME280;7185;51.854;6.622;2022-12-07T05:11:14;101366.66;;;3.92;100.00
14204;BME280;7185;51.854;6.622;2022-12-07T05:14:12;101365.72;;;3.89;100.00
14204;BME280;7185;51.854;6.622;2022-12-07T05:16:45;101358.88;;;3.91;100.00
14204;BME280;7185;51.854;6.622;2022-12-07T05:19:18;101359.66;;;3.88;100.00
14204;BME280;7185;51.854;6.622;2022-12-07T05:21:51;101358.69;;;3.85;100.00
14204;BME280;7185;51.854;6.622;2022-12-07T05:24:25;101361.34;;;3.86;100.00
14204;BME280;7185;51.854;6.622;2022-12-07T05:26:56;101373.50;;;3.89;100.00
14204;BME280;7185;51.854;6.622;2022-12-07T05:29:34;101372.44;;;3.79;100.00
14204;BME280;7185;51.854;6.622;2022-12-07T05:32:09;101362.09;;;3.80;100.00
14204;BME280;7185;51.854;6.622;2022-12-07T05:34:40;101359.41;;;3.77;100.00
14204;BME280;7185;51.854;6.622;2022-12-07T05:37:13;101362.09;;;3.80;100.00
14204;BME280;7185;51.854;6.622;2022-12-07T05:39:45;101365.53;;;3.81;100.00
14204;BME280;7185;51.854;6.622;2022-12-07T05:42:17;101352.69;;;3.86;100.00
14204;BME280;7185;51.854;6.622;2022-12-07T05:44:53;101361.38;;;3.88;100.00
14204;BME280;7185;51.854;6.622;2022-12-07T05:47:42;101357.88;;;3.86;100.00
14204;BME280;7185;51.854;6.622;2022-12-07T05:50:23;101358.63;;;3.80;100.00
14204;BME280;7185;51.854;6.622;2022-12-07T05:52:56;101355.81;;;3.71;100.00
14204;BME280;7185;51.854;6.622;2022-12-07T05:55:28;101356.53;;;3.63;100.00
14204;BME280;7185;51.854;6.622;2022-12-07T05:58:02;101350.25;;;3.54;100.00
14204;BME280;7185;51.854;6.622;2022-12-07T06:00:54;101344.97;;;3.49;100.00
14204;BME280;7185;51.854;6.622;2022-12-07T06:03:26;101354.31;;;3.42;100.00
14204;BME280;7185;51.854;6.622;2022-12-07T06:05:57;101347.59;;;3.50;100.00
14204;BME280;7185;51.854;6.622;2022-12-07T06:08:30;101349.03;;;3.38;100.00
14204;BME280;7185;51.854;6.622;2022-12-07T06:11:02;101348.22;;;3.40;100.00
14204;BME280;7185;51.854;6.622;2022-12-07T06:13:51;101348.84;;;3.30;100.00
14204;BME280;7185;51.854;6.622;2022-12-07T06:16:23;101353.97;;;3.27;100.00
14204;BME280;7185;51.854;6.622;2022-12-07T06:18:54;101347.09;;;3.29;100.00
14204;BME280;7185;51.854;6.622;2022-12-07T06:21:26;101361.78;;;3.28;100.00
14204;BME280;7185;51.854;6.622;2022-12-07T06:23:59;101359.16;;;3.27;100.00
14204;BME280;7185;51.854;6.622;2022-12-07T06:26:30;101360.88;;;3.28;100.00
14204;BME280;7185;51.854;6.622;2022-12-07T06:29:02;101363.31;;;3.22;100.00
14204;BME280;7185;51.854;6.622;2022-12-07T06:31:34;101369.44;;;3.24;100.00
14204;BME280;7185;51.854;6.622;2022-12-07T06:34:08;101369.53;;;3.27;100.00
14204;BME280;7185;51.854;6.622;2022-12-07T06:36:40;101367.88;;;3.30;100.00
14204;BME280;7185;51.854;6.622;2022-12-07T06:39:13;101367.22;;;3.39;100.00
14204;BME280;7185;51.854;6.622;2022-12-07T06:41:45;101362.16;;;3.45;100.00
14204;BME280;7185;51.854;6.622;2022-12-07T06:44:17;101356.28;;;3.53;100.00
14204;BME280;7185;51.854;6.622;2022-12-07T06:46:49;101359.84;;;3.58;100.00
14204;BME280;7185;51.854;6.622;2022-12-07T06:49:20;101361.56;;;3.56;100.00
14204;BME280;7185;51.854;6.622;2022-12-07T06:51:52;101363.38;;;3.60;100.00
14204;BME280;7185;51.854;6.622;2022-12-07T06:54:25;101357.44;;;3.65;100.00
14204;BME280;7185;51.854;6.622;2022-12-07T06:56:57;101361.75;;;3.65;100.00
14204;BME280;7185;51.854;6.622;2022-12-07T06:59:29;101363.59;;;3.69;100.00
14204;BME280;7185;51.854;6.622;2022-12-07T07:02:00;101360.84;;;3.63;100.00
14204;BME280;7185;51.854;6.622;2022-12-07T07:04:32;101362.72;;;3.70;100.00
14204;BME280;7185;51.854;6.622;2022-12-07T07:07:04;101356.75;;;3.74;100.00
14204;BME280;7185;51.854;6.622;2022-12-07T07:09:37;101361.22;;;3.80;100.00
14204;BME280;7185;51.854;6.622;2022-12-07T07:12:09;101373.25;;;3.76;100.00
14204;BME280;7185;51.854;6.622;2022-12-07T07:14:40;101358.53;;;3.75;100.00
14204;BME280;7185;51.854;6.622;2022-12-07T07:17:13;101368.81;;;3.72;100.00
14204;BME280;7185;51.854;6.622;2022-12-07T07:19:44;101361.88;;;3.71;100.00
14204;BME280;7185;51.854;6.622;2022-12-07T07:22:16;101365.16;;;3.64;100.00
14204;BME280;7185;51.854;6.622;2022-12-07T07:24:49;101370.31;;;3.61;100.00
14204;BME280;7185;51.854;6.622;2022-12-07T07:27:21;101369.50;;;3.63;100.00
14204;BME280;7185;51.854;6.622;2022-12-07T07:29:52;101378.91;;;3.60;100.00
14204;BME280;7185;51.854;6.622;2022-12-07T07:32:24;101365.88;;;3.57;100.00
14204;BME280;7185;51.854;6.622;2022-12-07T07:34:55;101378.78;;;3.54;100.00
14204;BME280;7185;51.854;6.622;2022-12-07T07:37:27;101382.34;;;3.59;100.00
14204;BME280;7185;51.854;6.622;2022-12-07T07:40:00;101385.88;;;3.61;100.00
14204;BME280;7185;51.854;6.622;2022-12-07T07:42:31;101383.06;;;3.53;100.00
14204;BME280;7185;51.854;6.622;2022-12-07T07:45:03;101382.25;;;3.54;100.00
14204;BME280;7185;51.854;6.622;2022-12-07T07:47:35;101384.03;;;3.57;100.00
14204;BME280;7185;51.854;6.622;2022-12-07T07:50:07;101385.78;;;3.58;100.00
14204;BME280;7185;51.854;6.622;2022-12-07T07:52:39;101378.19;;;3.65;100.00
14204;BME280;7185;51.854;6.622;2022-12-07T07:55:12;101378.44;;;3.76;100.00
14204;BME280;7185;51.854;6.622;2022-12-07T07:57:44;101383.63;;;3.76;100.00
14204;BME280;7185;51.854;6.622;2022-12-07T08:00:16;101380.97;;;3.75;100.00
14204;BME280;7185;51.854;6.622;2022-12-07T08:02:48;101380.16;;;3.77;100.00
14204;BME280;7185;51.854;6.622;2022-12-07T08:05:19;101383.53;;;3.73;100.00
14204;BME280;7185;51.854;6.622;2022-12-07T08:07:51;101382.63;;;3.71;100.00
14204;BME280;7185;51.854;6.622;2022-12-07T08:10:24;101395.84;;;3.82;100.00
14204;BME280;7185;51.854;6.622;2022-12-07T08:12:56;101391.72;;;3.92;100.00
14204;BME280;7185;51.854;6.622;2022-12-07T08:15:45;101398.78;;;3.97;100.00
14204;BME280;7185;51.854;6.622;2022-12-07T08:18:17;101398.78;;;3.99;100.00
14204;BME280;7185;51.854;6.622;2022-12-07T08:20:49;101399.75;;;4.03;100.00
14204;BME280;7185;51.854;6.622;2022-12-07T08:23:20;101394.53;;;4.01;100.00
14204;BME280;7185;51.854;6.622;2022-12-07T08:25:53;101395.34;;;3.98;100.00
14204;BME280;7185;51.854;6.622;2022-12-07T08:28:25;101394.53;;;4.01;100.00
14204;BME280;7185;51.854;6.622;2022-12-07T08:30:58;101394.69;;;4.09;100.00
14204;BME280;7185;51.854;6.622;2022-12-07T08:33:31;101395.56;;;4.09;100.00
14204;BME280;7185;51.854;6.622;2022-12-07T08:36:04;101393.19;;;4.19;100.00
14204;BME280;7185;51.854;6.622;2022-12-07T08:38:37;101398.59;;;4.29;100.00
14204;BME280;7185;51.854;6.622;2022-12-07T08:41:10;101400.19;;;4.24;100.00
14204;BME280;7185;51.854;6.622;2022-12-07T08:43:42;101395.09;;;4.29;100.00
14204;BME280;7185;51.854;6.622;2022-12-07T08:46:18;101395.81;;;4.22;100.00
14204;BME280;7185;51.854;6.622;2022-12-07T08:48:53;101399.25;;;4.21;100.00
14204;BME280;7185;51.854;6.622;2022-12-07T08:51:26;101399.34;;;4.24;100.00
14204;BME280;7185;51.854;6.622;2022-12-07T08:53:59;101402.03;;;4.28;100.00
14204;BME280;7185;51.854;6.622;2022-12-07T08:56:34;101401.13;;;4.28;100.00
14204;BME280;7185;51.854;6.622;2022-12-07T08:59:06;101404.75;;;4.36;100.00
14204;BME280;7185;51.854;6.622;2022-12-07T09:01:38;101393.63;;;4.42;100.00
14204;BME280;7185;51.854;6.622;2022-12-07T09:04:10;101391.41;;;4.62;100.00
14204;BME280;7185;51.854;6.622;2022-12-07T09:06:41;101389.72;;;4.64;100.00
14204;BME280;7185;51.854;6.622;2022-12-07T09:09:13;101390.84;;;4.78;100.00
14204;BME280;7185;51.854;6.622;2022-12-07T09:11:47;101394.56;;;4.91;100.00
14204;BME280;7185;51.854;6.622;2022-12-07T09:14:18;101399.34;;;5.19;100.00
14204;BME280;7185;51.854;6.622;2022-12-07T09:16:50;101390.88;;;5.31;100.00
14204;BME280;7185;51.854;6.622;2022-12-07T09:19:22;101394.97;;;5.71;100.00
14204;BME280;7185;51.854;6.622;2022-12-07T09:21:53;101386.94;;;6.16;100.00
14204;BME280;7185;51.854;6.622;2022-12-07T09:24:25;101389.88;;;6.44;100.00
14204;BME280;7185;51.854;6.622;2022-12-07T09:26:58;101396.00;;;6.50;100.00
14204;BME280;7185;51.854;6.622;2022-12-07T09:29:29;101396.13;;;6.61;100.00
14204;BME280;7185;51.854;6.622;2022-12-07T09:32:01;101396.00;;;6.49;100.00
14204;BME280;7185;51.854;6.622;2022-12-07T09:34:33;101393.19;;;6.32;100.00
14204;BME280;7185;51.854;6.622;2022-12-07T09:37:04;101400.75;;;6.10;100.00
14204;BME280;7185;51.854;6.622;2022-12-07T09:39:39;101392.16;;;6.19;100.00
14204;BME280;7185;51.854;6.622;2022-12-07T09:42:23;101398.19;;;6.15;100.00
14204;BME280;7185;51.854;6.622;2022-12-07T09:44:58;101392.88;;;6.05;100.00
14204;BME280;7185;51.854;6.622;2022-12-07T09:47:30;101385.03;;;6.02;100.00
14204;BME280;7185;51.854;6.622;2022-12-07T09:50:07;101387.66;;;6.07;100.00
14204;BME280;7185;51.854;6.622;2022-12-07T09:52:44;101378.31;;;6.21;100.00
14204;BME280;7185;51.854;6.622;2022-12-07T09:55:23;101385.25;;;6.21;100.00
14204;BME280;7185;51.854;6.622;2022-12-07T09:57:58;101388.97;;;6.42;100.00
14204;BME280;7185;51.854;6.622;2022-12-07T10:00:29;101386.41;;;6.45;100.00
14204;BME280;7185;51.854;6.622;2022-12-07T10:03:02;101374.59;;;6.81;100.00
14204;BME280;7185;51.854;6.622;2022-12-07T10:05:36;101372.59;;;7.50;100.00
14204;BME280;7185;51.854;6.622;2022-12-07T10:08:10;101367.06;;;8.92;100.00
14204;BME280;7185;51.854;6.622;2022-12-07T10:10:42;101360.69;;;10.27;100.00
14204;BME280;7185;51.854;6.622;2022-12-07T10:13:19;101364.16;;;10.44;100.00
14204;BME280;7185;51.854;6.622;2022-12-07T10:15:53;101360.75;;;10.17;100.00
14204;BME280;7185;51.854;6.622;2022-12-07T10:18:28;101369.66;;;9.67;100.00
14204;BME280;7185;51.854;6.622;2022-12-07T10:21:05;101362.69;;;9.13;100.00
14204;BME280;7185;51.854;6.622;2022-12-07T10:23:39;101367.94;;;8.95;100.00
14204;BME280;7185;51.854;6.622;2022-12-07T10:26:33;101364.34;;;8.46;100.00
14204;BME280;7185;51.854;6.622;2022-12-07T10:29:15;101360.75;;;8.22;100.00
14204;BME280;7185;51.854;6.622;2022-12-07T10:31:54;101362.44;;;7.98;100.00
14204;BME280;7185;51.854;6.622;2022-12-07T10:34:29;101348.44;;;7.92;100.00
14204;BME280;7185;51.854;6.622;2022-12-07T10:37:14;101351.03;;;7.84;100.00
14204;BME280;7185;51.854;6.622;2022-12-07T10:39:48;101344.13;;;7.92;100.00
14204;BME280;7185;51.854;6.622;2022-12-07T10:42:21;101353.72;;;8.00;100.00
14204;BME280;7185;51.854;6.622;2022-12-07T10:45:08;101345.09;;;8.22;100.00
14204;BME280;7185;51.854;6.622;2022-12-07T10:47:44;101337.31;;;8.38;100.00
14204;BME280;7185;51.854;6.622;2022-12-07T10:50:29;101341.66;;;8.36;100.00
14204;BME280;7185;51.854;6.622;2022-12-07T10:53:24;101338.19;;;8.38;100.00
14204;BME280;7185;51.854;6.622;2022-12-07T10:56:18;101333.91;;;8.53;100.00
14204;BME280;7185;51.854;6.622;2022-12-07T10:59:03;101325.19;;;8.69;100.00
14204;BME280;7185;51.854;6.622;2022-12-07T11:01:46;101325.22;;;9.00;100.00
14204;BME280;7185;51.854;6.622;2022-12-07T11:04:28;101322.59;;;9.27;100.00
14204;BME280;7185;51.854;6.622;2022-12-07T11:07:06;101322.56;;;9.42;100.00
14204;BME280;7185;51.854;6.622;2022-12-07T11:10:02;101310.47;;;10.95;100.00
14204;BME280;7185;51.854;6.622;2022-12-07T11:13:00;101302.72;;;12.38;100.00
14204;BME280;7185;51.854;6.622;2022-12-07T11:15:51;101301.63;;;12.55;68.40
14204;BME280;7185;51.854;6.622;2022-12-07T11:18:30;101295.47;;;12.56;67.38
14204;BME280;7185;51.854;6.622;2022-12-07T11:21:09;101294.84;;;12.40;70.10
14204;BME280;7185;51.854;6.622;2022-12-07T11:23:48;101292.69;;;13.17;66.82
14204;BME280;7185;51.854;6.622;2022-12-07T11:26:29;101293.44;;;14.14;63.00
14204;BME280;7185;51.854;6.622;2022-12-07T11:29:18;101284.94;;;14.41;60.90
14204;BME280;7185;51.854;6.622;2022-12-07T11:32:00;101298.97;;;13.58;62.47
14204;BME280;7185;51.854;6.622;2022-12-07T11:34:44;101286.19;;;12.88;66.24
14204;BME280;7185;51.854;6.622;2022-12-07T11:37:25;101288.88;;;12.85;67.55
14204;BME280;7185;51.854;6.622;2022-12-07T11:40:02;101287.06;;;12.88;66.66
14204;BME280;7185;51.854;6.622;2022-12-07T11:42:41;101286.41;;;12.72;65.77
14204;BME280;7185;51.854;6.622;2022-12-07T11:45:16;101288.88;;;12.27;67.10
14204;BME280;7185;51.854;6.622;2022-12-07T11:47:54;101289.13;;;11.34;69.74
14204;BME280;7185;51.854;6.622;2022-12-07T11:50:36;101286.22;;;10.62;72.43
14204;BME280;7185;51.854;6.622;2022-12-07T11:53:15;101283.81;;;10.28;74.62
14204;BME280;7185;51.854;6.622;2022-12-07T11:55:50;101281.44;;;9.78;77.47
14204;BME280;7185;51.854;6.622;2022-12-07T11:58:42;101279.00;;;9.16;80.81
14204;BME280;7185;51.854;6.622;2022-12-07T12:01:38;101281.66;;;8.87;83.60
14204;BME280;7185;51.854;6.622;2022-12-07T12:04:23;101277.25;;;9.00;84.04
14204;BME280;7185;51.854;6.622;2022-12-07T12:06:58;101276.41;;;8.82;84.31
14204;BME280;7185;51.854;6.622;2022-12-07T12:09:33;101272.91;;;8.74;84.40
14204;BME280;7185;51.854;6.622;2022-12-07T12:12:21;101266.81;;;8.69;84.91
14204;BME280;7185;51.854;6.622;2022-12-07T12:15:06;101263.31;;;8.73;84.72
14204;BME280;7185;51.854;6.622;2022-12-07T12:20:50;101270.25;;;8.40;86.41
14204;BME280;7185;51.854;6.622;2022-12-07T12:23:30;101264.16;;;8.36;87.75
14204;BME280;7185;51.854;6.622;2022-12-07T12:26:07;101271.94;;;8.28;89.62
14204;BME280;7185;51.854;6.622;2022-12-07T12:28:41;101263.22;;;8.09;94.11
14204;BME280;7185;51.854;6.622;2022-12-07T12:31:36;101263.25;;;8.20;93.57
14204;BME280;7185;51.854;6.622;2022-12-07T12:34:32;101255.41;;;8.25;96.35
14204;BME280;7185;51.854;6.622;2022-12-07T12:43:52;101245.03;;;8.54;97.96
14204;BME280;7185;51.854;6.622;2022-12-07T12:46:47;101250.13;;;9.49;94.50
14204;BME280;7185;51.854;6.622;2022-12-07T12:52:53;101236.22;;;10.87;74.81
14204;BME280;7185;51.854;6.622;2022-12-07T12:56:05;101242.44;;;10.72;77.03
14204;BME280;7185;51.854;6.622;2022-12-07T12:58:43;101241.59;;;10.71;74.02
14204;BME280;7185;51.854;6.622;2022-12-07T13:01:42;101236.75;;;10.09;76.76
14204;BME280;7185;51.854;6.622;2022-12-07T13:04:24;101233.47;;;9.64;78.84
14204;BME280;7185;51.854;6.622;2022-12-07T13:06:56;101238.88;;;9.08;82.34
14204;BME280;7185;51.854;6.622;2022-12-07T13:09:29;101228.47;;;8.74;83.73
14204;BME280;7185;51.854;6.622;2022-12-07T13:12:05;101227.59;;;8.61;84.79
14204;BME280;7185;51.854;6.622;2022-12-07T13:14:55;101225.81;;;8.27;87.74
14204;BME280;7185;51.854;6.622;2022-12-07T13:18:00;101224.06;;;8.23;89.50
14204;BME280;7185;51.854;6.622;2022-12-07T13:20:49;101210.97;;;7.98;91.25
14204;BME280;7185;51.854;6.622;2022-12-07T13:23:27;101209.22;;;7.99;91.96
14204;BME280;7185;51.854;6.622;2022-12-07T13:26:14;101198.78;;;7.97;92.10
14204;BME280;7185;51.854;6.622;2022-12-07T13:28:47;101210.09;;;8.01;92.02
14204;BME280;7185;51.854;6.622;2022-12-07T13:31:33;101204.91;;;8.17;91.83
14204;BME280;7185;51.854;6.622;2022-12-07T13:34:32;101198.81;;;8.33;90.39
14204;BME280;7185;51.854;6.622;2022-12-07T13:37:10;101194.47;;;8.17;90.46
14204;BME280;7185;51.854;6.622;2022-12-07T13:39:45;101190.13;;;8.33;89.71
14204;BME280;7185;51.854;6.622;2022-12-07T13:42:24;101186.66;;;8.55;87.89
14204;BME280;7185;51.854;6.622;2022-12-07T13:44:58;101188.38;;;8.80;86.55
14204;BME280;7185;51.854;6.622;2022-12-07T13:47:34;101184.00;;;8.96;84.45
14204;BME280;7185;51.854;6.622;2022-12-07T13:50:23;101173.56;;;8.85;83.18
14204;BME280;7185;51.854;6.622;2022-12-07T13:52:55;101184.91;;;8.54;84.32
14204;BME280;7185;51.854;6.622;2022-12-07T13:55:28;101176.19;;;8.58;85.00
14204;BME280;7185;51.854;6.622;2022-12-07T13:58:00;101169.19;;;8.23;87.39
14204;BME280;7185;51.854;6.622;2022-12-07T14:00:32;101170.06;;;8.18;87.95
14204;BME280;7185;51.854;6.622;2022-12-07T14:03:19;101161.31;;;7.89;89.18